Ahoskie, North Carolina
Current Conditions -  °F | °C
As of 7:35 AM on Friday 24 Oct 2014 (Local Time) from KASJ Reporting Station
Clear Clear  
Wind Chill: 45°   Ceiling: Unl
Heat Index: 45°   Visibility: 10mi
Dew Point: 42°   Wind: 0mph
Humidity: 87%   Direction: NA
Pressure: 30.01"   Gusts: NA
Location:  36.29°N, 76.98°W
Report Text: KASJ 241135Z AUTO 00000KT 10SM CLR 07/05 A3001 RMK AO2 T00740053 PWINO
Loading
Personal Weather Stations






























Interactive Weather Map New forecast layout! Learn more

10-Day Weather Forecast

Advertisements
Track Severe Weather on mobile